createdAt,value
2018-05-18T00:00:10.756Z,78.79
2018-05-18T00:00:46.699Z,79.33
2018-05-18T00:01:21.996Z,78.56
2018-05-18T00:01:57.356Z,78.56
2018-05-18T00:02:32.600Z,78.47
2018-05-18T00:03:08.001Z,78.56
2018-05-18T00:03:43.257Z,78.28
2018-05-18T00:04:18.646Z,78.47
2018-05-18T00:04:54.795Z,78.85
2018-05-18T00:05:30.190Z,78.66
2018-05-18T00:06:05.610Z,78.56
2018-05-18T00:06:41.074Z,78.85
2018-05-18T00:07:16.391Z,79.14
2018-05-18T00:07:51.889Z,78.94
2018-05-18T00:08:27.079Z,79.43
2018-05-18T00:09:02.472Z,79.14
2018-05-18T00:09:37.786Z,78.94
2018-05-18T00:10:13.190Z,79.71
2018-05-18T00:10:49.092Z,80.28
2018-05-18T00:11:24.394Z,79.56
2018-05-18T00:11:59.740Z,79.14
2018-05-18T00:12:34.896Z,79.14
2018-05-18T00:13:09.895Z,78.94
2018-05-18T00:13:44.912Z,78.94
2018-05-18T00:14:20.260Z,79.23
2018-05-18T00:14:55.795Z,79.14
2018-05-18T00:15:31.070Z,78.94
2018-05-18T00:16:06.343Z,78.94
2018-05-18T00:16:41.988Z,79.52
2018-05-18T00:17:17.343Z,79.99
2018-05-18T00:17:52.708Z,79.33
2018-05-18T00:18:27.953Z,79.23
2018-05-18T00:19:03.402Z,79.23
2018-05-18T00:19:38.695Z,79.61
2018-05-18T00:20:13.925Z,79.80
2018-05-18T00:20:49.120Z,79.99
2018-05-18T00:21:24.753Z,79.71
2018-05-18T00:22:00.524Z,79.71
2018-05-18T00:22:35.764Z,79.61
2018-05-18T00:23:11.273Z,79.33
2018-05-18T00:23:46.934Z,79.43
2018-05-18T00:24:22.348Z,79.43
2018-05-18T00:24:57.406Z,79.80
2018-05-18T00:25:32.567Z,79.80
2018-05-18T00:26:08.414Z,79.23
2018-05-18T00:26:43.938Z,79.23
2018-05-18T00:27:19.250Z,79.33
2018-05-18T00:27:54.659Z,79.33
2018-05-18T00:28:30.254Z,80.19
2018-05-18T00:29:05.596Z,79.80
2018-05-18T00:29:41.013Z,80.19
2018-05-18T00:30:16.443Z,79.99
2018-05-18T00:30:51.790Z,80.76
2018-05-18T00:31:27.005Z,80.66
2018-05-18T00:32:02.461Z,80.28
2018-05-18T00:32:37.876Z,80.19
2018-05-18T00:33:13.353Z,80.09
2018-05-18T00:33:48.723Z,79.80
2018-05-18T00:34:24.255Z,79.43
2018-05-18T00:34:59.509Z,79.43
2018-05-18T00:35:34.872Z,79.52
2018-05-18T00:36:10.384Z,79.52
2018-05-18T00:36:45.733Z,79.23
2018-05-18T00:37:21.645Z,79.33
2018-05-18T00:37:57.080Z,79.14
2018-05-18T00:38:32.580Z,79.23
2018-05-18T00:39:07.963Z,79.23
2018-05-18T00:39:43.575Z,79.33
2018-05-18T00:40:18.921Z,79.43
2018-05-18T00:40:54.262Z,78.85
2018-05-18T00:41:29.432Z,79.52
2018-05-18T00:42:04.851Z,79.99
2018-05-18T00:42:40.487Z,79.71
2018-05-18T00:43:16.018Z,79.80
2018-05-18T00:43:51.741Z,79.71
2018-05-18T00:44:27.143Z,79.33
2018-05-18T00:45:02.832Z,79.43
2018-05-18T00:45:40.166Z,78.66
2018-05-18T00:46:15.600Z,78.85
2018-05-18T00:46:50.686Z,79.04
2018-05-18T00:47:26.389Z,79.04
2018-05-18T00:48:01.795Z,78.75
2018-05-18T00:48:37.272Z,79.43
2018-05-18T00:49:12.786Z,79.71
2018-05-18T00:49:48.257Z,79.43
2018-05-18T00:50:23.724Z,78.75
2018-05-18T00:50:58.883Z,79.33
2018-05-18T00:51:34.308Z,78.94
2018-05-18T00:52:09.599Z,79.14
2018-05-18T00:52:44.900Z,79.23
2018-05-18T00:53:20.425Z,78.56
2018-05-18T00:53:55.959Z,78.56
2018-05-18T00:54:31.290Z,78.75
2018-05-18T00:55:06.517Z,79.33
2018-05-18T00:55:42.235Z,79.14
2018-05-18T00:56:17.574Z,79.14
2018-05-18T00:56:54.201Z,79.04
2018-05-18T00:57:29.713Z,78.75
2018-05-18T00:58:05.299Z,78.75
2018-05-18T00:58:41.758Z,78.94
2018-05-18T00:59:16.957Z,78.85
2018-05-18T00:59:52.323Z,79.23
2018-05-18T01:00:27.811Z,79.14
2018-05-18T01:01:03.273Z,78.85
2018-05-18T01:01:38.812Z,79.43
2018-05-18T01:02:14.221Z,79.23
2018-05-18T01:02:49.568Z,79.33
2018-05-18T01:03:24.581Z,79.61
2018-05-18T01:03:59.754Z,79.33
2018-05-18T01:04:35.008Z,80.19
2018-05-18T01:05:10.202Z,79.99
2018-05-18T01:05:46.044Z,79.71
2018-05-18T01:06:21.410Z,79.99
2018-05-18T01:06:56.743Z,79.71
2018-05-18T01:07:31.879Z,79.71
2018-05-18T01:08:07.484Z,80.19
2018-05-18T01:08:44.556Z,80.19
2018-05-18T01:09:19.849Z,80.09
2018-05-18T01:09:55.246Z,79.80
2018-05-18T01:10:30.707Z,79.80
2018-05-18T01:11:06.196Z,79.99
2018-05-18T01:11:41.416Z,79.99
2018-05-18T01:12:16.828Z,80.19
2018-05-18T01:12:52.326Z,80.19
2018-05-18T01:13:27.486Z,79.52
2018-05-18T01:14:02.820Z,79.71
2018-05-18T01:14:38.202Z,79.52
2018-05-18T01:15:13.527Z,79.43
2018-05-18T01:15:48.798Z,79.33
2018-05-18T01:16:24.030Z,79.14
2018-05-18T01:16:59.503Z,78.94
2018-05-18T01:17:34.631Z,78.94
2018-05-18T01:18:09.855Z,79.04
2018-05-18T01:18:45.353Z,78.72
2018-05-18T01:19:20.871Z,79.38
2018-05-18T01:19:56.205Z,79.57
2018-05-18T01:20:31.888Z,79.90
2018-05-18T01:21:07.271Z,79.48
2018-05-18T01:21:42.510Z,79.28
2018-05-18T01:22:17.905Z,79.67
2018-05-18T01:22:53.331Z,79.48
2018-05-18T01:23:28.793Z,79.38
2018-05-18T01:24:04.496Z,79.19
2018-05-18T01:24:40.020Z,79.48
2018-05-18T01:25:15.341Z,79.48
2018-05-18T01:25:50.440Z,79.28
2018-05-18T01:26:25.937Z,79.38
2018-05-18T01:27:01.164Z,79.38
2018-05-18T01:27:36.576Z,79.67
2018-05-18T01:28:11.935Z,79.67
2018-05-18T01:28:47.367Z,79.77
2018-05-18T01:29:22.714Z,79.57
2018-05-18T01:29:58.124Z,80.05
2018-05-18T01:30:33.415Z,79.86
2018-05-18T01:31:09.016Z,79.48
2018-05-18T01:31:44.318Z,79.86
2018-05-18T01:32:19.643Z,79.96
2018-05-18T01:32:54.855Z,79.86
2018-05-18T01:33:30.126Z,79.86
2018-05-18T01:34:05.505Z,79.57
2018-05-18T01:34:41.373Z,80.15
2018-05-18T01:35:16.783Z,79.96
2018-05-18T01:35:51.911Z,80.24
2018-05-18T01:36:27.210Z,79.77
2018-05-18T01:37:02.449Z,80.15
2018-05-18T01:37:37.822Z,79.67
2018-05-18T01:38:13.158Z,79.67
2018-05-18T01:38:48.568Z,79.10
2018-05-18T01:39:23.887Z,79.38
2018-05-18T01:39:59.145Z,79.10
2018-05-18T01:40:34.599Z,79.67
2018-05-18T01:41:10.809Z,79.57
2018-05-18T01:41:46.147Z,79.77
2018-05-18T01:42:21.376Z,79.77
2018-05-18T01:42:56.663Z,80.43
2018-05-18T01:43:32.112Z,80.72
2018-05-18T01:44:07.736Z,80.15
2018-05-18T01:44:43.572Z,80.62
2018-05-18T01:45:18.909Z,80.81
2018-05-18T01:45:54.343Z,80.62
2018-05-18T01:46:29.871Z,80.33
2018-05-18T01:47:05.175Z,80.24
2018-05-18T01:47:40.557Z,80.15
2018-05-18T01:48:16.315Z,79.77
2018-05-18T01:48:52.022Z,79.96
2018-05-18T01:49:27.413Z,79.96
2018-05-18T01:50:03.048Z,80.15
2018-05-18T01:50:38.972Z,79.67
2018-05-18T01:51:14.240Z,79.77
2018-05-18T01:51:49.270Z,79.96
2018-05-18T01:52:24.996Z,80.15
2018-05-18T01:53:00.503Z,80.05
2018-05-18T01:53:36.240Z,79.96
2018-05-18T01:54:11.701Z,80.15
2018-05-18T01:54:47.083Z,79.96
2018-05-18T01:55:22.655Z,79.96
2018-05-18T01:55:57.976Z,80.62
2018-05-18T01:56:33.510Z,80.62
2018-05-18T01:57:09.051Z,80.72
2018-05-18T01:57:44.461Z,80.53
2018-05-18T01:58:19.614Z,80.15
2018-05-18T01:58:55.315Z,80.43
2018-05-18T01:59:30.505Z,80.81
2018-05-18T02:00:06.004Z,80.15
2018-05-18T02:00:42.213Z,80.33
2018-05-18T02:01:17.432Z,80.24
2018-05-18T02:01:52.520Z,79.77
2018-05-18T02:02:27.972Z,80.24
2018-05-18T02:03:03.252Z,80.24
2018-05-18T02:03:38.742Z,80.15
2018-05-18T02:04:14.308Z,80.15
2018-05-18T02:04:49.731Z,80.05
2018-05-18T02:05:25.133Z,80.39
2018-05-18T02:06:00.610Z,80.24
2018-05-18T02:06:36.040Z,80.01
2018-05-18T02:07:11.616Z,80.33
2018-05-18T02:07:47.521Z,80.15
2018-05-18T02:08:22.974Z,80.05
2018-05-18T02:08:58.609Z,80.33
2018-05-18T02:09:34.419Z,80.11
2018-05-18T02:10:09.778Z,80.53
2018-05-18T02:10:45.419Z,80.72
2018-05-18T02:11:21.078Z,80.72
2018-05-18T02:11:56.514Z,79.96
2018-05-18T02:12:32.084Z,79.86
2018-05-18T02:13:07.449Z,80.62
2018-05-18T02:13:42.652Z,80.53
2018-05-18T02:14:17.991Z,80.72
2018-05-18T02:14:53.006Z,80.05
2018-05-18T02:15:28.217Z,80.62
2018-05-18T02:16:03.903Z,80.58
2018-05-18T02:16:39.206Z,80.72
2018-05-18T02:17:14.513Z,80.81
2018-05-18T02:17:50.304Z,80.62
2018-05-18T02:18:25.962Z,80.62
2018-05-18T02:19:01.325Z,80.91
2018-05-18T02:19:36.900Z,80.81
2018-05-18T02:20:12.439Z,80.62
2018-05-18T02:20:47.999Z,80.72
2018-05-18T02:21:23.199Z,80.72
2018-05-18T02:21:58.423Z,80.15
2018-05-18T02:22:34.031Z,80.72
2018-05-18T02:23:09.081Z,80.62
2018-05-18T02:23:44.397Z,80.72
2018-05-18T02:24:20.186Z,80.62
2018-05-18T02:24:55.355Z,80.81
2018-05-18T02:25:30.394Z,80.72
2018-05-18T02:26:05.881Z,80.53
2018-05-18T02:26:41.427Z,80.43
2018-05-18T02:27:16.697Z,80.62
2018-05-18T02:27:52.235Z,79.86
2018-05-18T02:28:27.895Z,80.15
2018-05-18T02:29:03.516Z,80.15
2018-05-18T02:29:38.924Z,80.15
2018-05-18T02:30:14.315Z,79.77
2018-05-18T02:30:51.247Z,79.96
2018-05-18T02:31:26.748Z,80.15
2018-05-18T02:32:02.219Z,80.05
2018-05-18T02:32:37.433Z,80.33
2018-05-18T02:33:13.015Z,80.15
2018-05-18T02:33:48.424Z,80.05
2018-05-18T02:34:23.676Z,80.05
2018-05-18T02:34:59.023Z,80.62
2018-05-18T02:35:34.015Z,80.62
2018-05-18T02:36:09.746Z,80.53
2018-05-18T02:36:45.790Z,80.53
2018-05-18T02:37:21.037Z,80.81
2018-05-18T02:37:56.452Z,80.62
2018-05-18T02:38:32.054Z,80.49
2018-05-18T02:39:07.526Z,80.53
2018-05-18T02:39:42.716Z,80.81
2018-05-18T02:40:18.123Z,80.62
2018-05-18T02:40:53.363Z,80.62
2018-05-18T02:41:28.843Z,80.62
2018-05-18T02:42:04.387Z,80.62
2018-05-18T02:42:39.801Z,80.72
2018-05-18T02:43:15.097Z,80.53
2018-05-18T02:43:50.530Z,80.62
2018-05-18T02:44:25.856Z,80.81
2018-05-18T02:45:01.094Z,80.53
2018-05-18T02:45:36.500Z,80.81
2018-05-18T02:46:11.672Z,80.62
2018-05-18T02:46:47.238Z,80.62
2018-05-18T02:47:22.613Z,80.53
2018-05-18T02:47:58.032Z,80.68
2018-05-18T02:48:33.448Z,80.72
2018-05-18T02:49:08.849Z,80.68
2018-05-18T02:49:44.521Z,80.62
2018-05-18T02:50:19.687Z,80.62
2018-05-18T02:50:55.289Z,80.43
2018-05-18T02:51:30.491Z,80.72
2018-05-18T02:52:05.868Z,80.81
2018-05-18T02:52:41.431Z,80.77
2018-05-18T02:53:16.624Z,80.33
2018-05-18T02:53:51.873Z,80.49
2018-05-18T02:54:27.528Z,80.68
2018-05-18T02:55:03.011Z,80.53
2018-05-18T02:55:38.688Z,80.24
2018-05-18T02:56:14.018Z,80.15
2018-05-18T02:56:49.109Z,79.77
2018-05-18T02:57:24.453Z,79.67
2018-05-18T02:58:01.644Z,79.57
2018-05-18T02:58:37.007Z,79.96
2018-05-18T02:59:12.567Z,79.96
2018-05-18T02:59:47.994Z,80.15
2018-05-18T03:00:23.378Z,79.48
2018-05-18T03:00:59.539Z,79.77
2018-05-18T03:01:34.787Z,79.96
2018-05-18T03:02:10.298Z,79.86
2018-05-18T03:02:45.861Z,79.67
2018-05-18T03:03:21.926Z,79.77
2018-05-18T03:03:57.249Z,80.15
2018-05-18T03:04:32.591Z,80.15
2018-05-18T03:05:08.010Z,79.48
2018-05-18T03:05:43.244Z,80.15
2018-05-18T03:06:18.538Z,79.77
2018-05-18T03:06:53.897Z,79.57
2018-05-18T03:07:29.504Z,79.57
2018-05-18T03:08:04.775Z,79.48
2018-05-18T03:08:40.041Z,79.38
2018-05-18T03:09:15.673Z,78.72
2018-05-18T03:09:51.100Z,79.25
2018-05-18T03:10:26.360Z,79.35
2018-05-18T03:11:01.593Z,79.35
2018-05-18T03:11:36.776Z,79.06
2018-05-18T03:12:11.921Z,79.25
2018-05-18T03:12:47.560Z,79.06
2018-05-18T03:13:22.776Z,78.96
2018-05-18T03:13:57.957Z,79.25
2018-05-18T03:14:33.396Z,78.91
2018-05-18T03:15:08.694Z,79.15
2018-05-18T03:15:44.727Z,79.00
2018-05-18T03:16:20.108Z,78.86
2018-05-18T03:16:55.470Z,79.06
2018-05-18T03:17:31.024Z,78.49
2018-05-18T03:18:06.157Z,79.19
2018-05-18T03:18:42.141Z,78.81
2018-05-18T03:19:17.917Z,78.39
2018-05-18T03:19:53.147Z,78.67
2018-05-18T03:20:28.250Z,78.96
2018-05-18T03:21:03.712Z,79.10
2018-05-18T03:21:39.098Z,78.43
2018-05-18T03:22:14.660Z,78.49
2018-05-18T03:22:50.007Z,78.10
2018-05-18T03:23:25.391Z,78.20
2018-05-18T03:24:00.777Z,78.10
2018-05-18T03:24:36.290Z,78.20
2018-05-18T03:25:11.829Z,78.39
2018-05-18T03:25:47.213Z,78.49
2018-05-18T03:26:22.750Z,78.20
2018-05-18T03:26:58.253Z,78.20
2018-05-18T03:27:33.865Z,78.20
2018-05-18T03:28:09.184Z,78.49
2018-05-18T03:28:44.937Z,78.39
2018-05-18T03:29:20.507Z,78.20
2018-05-18T03:29:55.743Z,78.39
2018-05-18T03:30:31.353Z,77.72
2018-05-18T03:31:06.522Z,77.91
2018-05-18T03:31:41.986Z,77.82
2018-05-18T03:32:17.339Z,78.49
2018-05-18T03:32:52.962Z,77.82
2018-05-18T03:33:28.483Z,78.39
2018-05-18T03:34:03.892Z,78.49
2018-05-18T03:34:39.629Z,78.20
2018-05-18T03:35:14.741Z,78.20
2018-05-18T03:35:50.151Z,78.30
2018-05-18T03:36:25.528Z,78.20
2018-05-18T03:37:00.863Z,78.39
2018-05-18T03:37:36.369Z,78.58
2018-05-18T03:38:11.705Z,77.53
2018-05-18T03:38:47.201Z,77.82
2018-05-18T03:39:22.854Z,77.82
2018-05-18T03:39:58.154Z,77.91
2018-05-18T03:40:33.424Z,77.62
2018-05-18T03:41:08.863Z,78.20
2018-05-18T03:41:44.203Z,77.91
2018-05-18T03:42:19.596Z,77.91
2018-05-18T03:42:55.125Z,77.82
2018-05-18T03:43:30.355Z,78.01
2018-05-18T03:44:06.068Z,77.91
2018-05-18T03:44:41.843Z,77.91
2018-05-18T03:45:17.492Z,77.72
2018-05-18T03:45:52.879Z,77.91
2018-05-18T03:46:28.011Z,77.91
2018-05-18T03:47:03.474Z,78.10
2018-05-18T03:47:39.111Z,77.72
2018-05-18T03:48:14.645Z,77.72
2018-05-18T03:48:50.020Z,77.72
2018-05-18T03:49:25.543Z,77.53
2018-05-18T03:50:01.171Z,77.62
2018-05-18T03:50:36.766Z,77.62
2018-05-18T03:51:11.917Z,77.62
2018-05-18T03:51:47.095Z,77.82
2018-05-18T03:52:22.507Z,77.62
2018-05-18T03:52:58.005Z,77.44
2018-05-18T03:53:33.216Z,77.82
2018-05-18T03:54:08.727Z,77.62
2018-05-18T03:54:43.987Z,77.62
2018-05-18T03:55:19.417Z,77.91
2018-05-18T03:55:54.506Z,77.82
2018-05-18T03:56:30.129Z,77.82
2018-05-18T03:57:05.525Z,78.10
2018-05-18T03:57:40.896Z,78.20
2018-05-18T03:58:16.245Z,77.82
2018-05-18T03:58:51.397Z,77.91
2018-05-18T03:59:26.467Z,77.91
2018-05-18T04:00:01.795Z,77.91
2018-05-18T04:00:38.107Z,78.01
2018-05-18T04:01:13.505Z,77.91
2018-05-18T04:01:49.055Z,77.91
2018-05-18T04:02:24.132Z,77.15
2018-05-18T04:02:59.391Z,77.34
2018-05-18T04:03:34.758Z,77.62
2018-05-18T04:04:10.315Z,77.72
2018-05-18T04:04:45.512Z,77.72
2018-05-18T04:05:21.006Z,77.34
2018-05-18T04:05:56.352Z,77.34
2018-05-18T04:06:31.711Z,77.44
2018-05-18T04:07:07.448Z,77.25
2018-05-18T04:07:42.793Z,77.15
2018-05-18T04:08:18.284Z,76.96
2018-05-18T04:08:54.264Z,77.34
2018-05-18T04:09:29.635Z,77.25
2018-05-18T04:10:04.837Z,76.86
2018-05-18T04:10:40.058Z,77.34
2018-05-18T04:11:15.850Z,76.77
2018-05-18T04:11:51.213Z,77.34
2018-05-18T04:12:26.747Z,77.82
2018-05-18T04:13:02.047Z,78.01
2018-05-18T04:13:37.135Z,77.34
2018-05-18T04:14:12.580Z,77.06
2018-05-18T04:14:48.321Z,77.06
2018-05-18T04:15:23.717Z,77.34
2018-05-18T04:15:59.321Z,77.15
2018-05-18T04:16:34.836Z,77.15
2018-05-18T04:17:10.159Z,76.71
2018-05-18T04:17:45.467Z,76.48
2018-05-18T04:18:21.329Z,76.48
2018-05-18T04:18:57.196Z,76.48
2018-05-18T04:19:32.620Z,76.67
2018-05-18T04:20:08.047Z,76.48
2018-05-18T04:20:43.593Z,77.25
2018-05-18T04:21:18.811Z,77.15
2018-05-18T04:21:54.195Z,77.15
2018-05-18T04:22:29.543Z,77.28
2018-05-18T04:23:04.822Z,77.15
2018-05-18T04:23:40.177Z,77.25
2018-05-18T04:24:15.417Z,77.15
2018-05-18T04:24:50.742Z,76.67
2018-05-18T04:25:26.029Z,76.57
2018-05-18T04:26:01.604Z,76.48
2018-05-18T04:26:37.122Z,77.15
2018-05-18T04:27:12.612Z,77.15
2018-05-18T04:27:48.122Z,76.48
2018-05-18T04:28:23.613Z,76.57
2018-05-18T04:28:58.823Z,77.19
2018-05-18T04:29:34.345Z,77.19
2018-05-18T04:30:10.140Z,77.19
2018-05-18T04:30:45.579Z,76.71
2018-05-18T04:31:20.946Z,76.71
2018-05-18T04:31:56.181Z,76.14
2018-05-18T04:32:31.770Z,76.71
2018-05-18T04:33:07.264Z,76.71
2018-05-18T04:33:42.406Z,76.20
2018-05-18T04:34:17.854Z,76.48
2018-05-18T04:34:53.283Z,76.39
2018-05-18T04:35:28.481Z,76.10
2018-05-18T04:36:03.780Z,76.29
2018-05-18T04:36:39.107Z,76.29
2018-05-18T04:37:14.396Z,76.67
2018-05-18T04:37:49.819Z,76.01
2018-05-18T04:38:25.163Z,76.10
2018-05-18T04:39:00.493Z,76.29
2018-05-18T04:39:36.016Z,76.48
2018-05-18T04:40:11.589Z,76.39
2018-05-18T04:40:47.299Z,75.34
2018-05-18T04:41:22.398Z,75.34
2018-05-18T04:41:57.855Z,75.53
2018-05-18T04:42:33.209Z,75.62
2018-05-18T04:43:08.566Z,75.15
2018-05-18T04:43:43.747Z,75.24
2018-05-18T04:44:19.149Z,75.91
2018-05-18T04:44:55.029Z,75.72
2018-05-18T04:45:30.891Z,75.76
2018-05-18T04:46:06.256Z,75.57
2018-05-18T04:46:41.632Z,75.53
2018-05-18T04:47:16.956Z,75.57
2018-05-18T04:47:52.347Z,75.57
2018-05-18T04:48:27.715Z,75.72
2018-05-18T04:49:03.279Z,74.90
2018-05-18T04:49:38.947Z,75.24
2018-05-18T04:50:14.439Z,75.15
2018-05-18T04:50:50.111Z,75.62
2018-05-18T04:51:25.342Z,75.76
2018-05-18T04:52:00.656Z,75.66
2018-05-18T04:52:36.131Z,75.85
2018-05-18T04:53:11.792Z,75.66
2018-05-18T04:53:47.379Z,75.18
2018-05-18T04:54:22.744Z,74.99
2018-05-18T04:54:57.860Z,75.09
2018-05-18T04:55:33.290Z,76.14
2018-05-18T04:56:08.805Z,76.04
2018-05-18T04:56:44.218Z,75.28
2018-05-18T04:57:19.645Z,75.18
2018-05-18T04:57:55.322Z,75.57
2018-05-18T04:58:30.550Z,75.57
2018-05-18T04:59:05.777Z,75.85
2018-05-18T04:59:41.782Z,75.09
2018-05-18T05:00:17.272Z,75.28
2018-05-18T05:00:53.802Z,75.57
2018-05-18T05:01:29.490Z,75.28
2018-05-18T05:02:05.099Z,75.28
2018-05-18T05:02:40.551Z,74.80
2018-05-18T05:03:16.224Z,75.37
2018-05-18T05:03:51.676Z,75.18
2018-05-18T05:04:27.174Z,75.18
2018-05-18T05:05:02.508Z,75.09
2018-05-18T05:05:38.263Z,75.09
2018-05-18T05:06:13.610Z,74.90
2018-05-18T05:06:50.899Z,74.80
2018-05-18T05:07:26.236Z,75.18
2018-05-18T05:08:01.823Z,74.71
2018-05-18T05:08:37.158Z,74.32
2018-05-18T05:09:12.848Z,74.61
2018-05-18T05:09:48.165Z,74.71
2018-05-18T05:10:23.438Z,74.80
2018-05-18T05:10:58.713Z,74.57
2018-05-18T05:11:34.049Z,75.15
2018-05-18T05:12:09.490Z,75.05
2018-05-18T05:12:44.997Z,74.86
2018-05-18T05:13:20.295Z,75.09
2018-05-18T05:13:55.558Z,74.42
2018-05-18T05:14:30.687Z,74.52
2018-05-18T05:15:06.242Z,74.23
2018-05-18T05:15:41.585Z,74.52
2018-05-18T05:16:17.010Z,75.18
2018-05-18T05:16:52.298Z,74.32
2018-05-18T05:17:27.574Z,74.32
2018-05-18T05:18:02.818Z,74.13
2018-05-18T05:18:38.841Z,73.66
2018-05-18T05:19:14.360Z,73.85
2018-05-18T05:19:49.479Z,74.04
2018-05-18T05:20:25.288Z,74.32
2018-05-18T05:21:02.254Z,74.13
2018-05-18T05:21:37.790Z,73.85
2018-05-18T05:22:12.915Z,73.75
2018-05-18T05:22:48.329Z,73.56
2018-05-18T05:23:23.724Z,73.85
2018-05-18T05:23:58.997Z,73.75
2018-05-18T05:24:34.366Z,73.94
2018-05-18T05:25:09.945Z,73.75
2018-05-18T05:25:45.293Z,73.94
2018-05-18T05:26:20.603Z,73.47
2018-05-18T05:26:55.831Z,73.56
2018-05-18T05:27:31.251Z,73.18
2018-05-18T05:28:06.788Z,73.18
2018-05-18T05:28:42.174Z,73.66
2018-05-18T05:29:17.432Z,73.08
2018-05-18T05:29:52.803Z,73.18
2018-05-18T05:30:28.393Z,73.56
2018-05-18T05:31:03.607Z,73.28
2018-05-18T05:31:38.672Z,73.28
2018-05-18T05:32:14.010Z,73.37
2018-05-18T05:32:49.371Z,73.37
2018-05-18T05:33:24.770Z,73.37
2018-05-18T05:34:00.112Z,73.47
2018-05-18T05:34:35.406Z,73.47
2018-05-18T05:35:10.654Z,73.08
2018-05-18T05:35:45.932Z,73.75
2018-05-18T05:36:20.966Z,73.47
2018-05-18T05:36:56.393Z,73.75
2018-05-18T05:37:31.615Z,73.60
2018-05-18T05:38:06.968Z,73.08
2018-05-18T05:38:42.206Z,73.12
2018-05-18T05:39:17.686Z,73.32
2018-05-18T05:39:52.832Z,73.50
2018-05-18T05:40:28.139Z,72.74
2018-05-18T05:41:03.394Z,72.64
2018-05-18T05:41:38.842Z,73.03
2018-05-18T05:42:14.370Z,72.83
2018-05-18T05:42:49.892Z,73.03
2018-05-18T05:43:25.358Z,72.26
2018-05-18T05:44:00.782Z,73.22
2018-05-18T05:44:37.267Z,72.45
2018-05-18T05:45:13.003Z,72.45
2018-05-18T05:45:48.364Z,72.07
2018-05-18T05:46:23.875Z,72.55
2018-05-18T05:46:59.251Z,72.93
2018-05-18T05:47:34.714Z,72.74
2018-05-18T05:48:10.111Z,72.07
2018-05-18T05:48:45.546Z,72.07
2018-05-18T05:49:20.873Z,71.88
2018-05-18T05:49:56.609Z,72.07
2018-05-18T05:50:31.981Z,72.36
2018-05-18T05:51:07.516Z,71.88
2018-05-18T05:51:43.332Z,72.07
2018-05-18T05:52:18.637Z,72.07
2018-05-18T05:52:54.224Z,72.07
2018-05-18T05:53:29.593Z,71.88
2018-05-18T05:54:04.871Z,71.50
2018-05-18T05:54:40.208Z,71.31
2018-05-18T05:55:15.619Z,71.12
2018-05-18T05:55:51.009Z,71.12
2018-05-18T05:56:26.565Z,71.41
2018-05-18T05:57:01.856Z,70.73
2018-05-18T05:57:37.377Z,71.12
2018-05-18T05:58:12.721Z,70.73
2018-05-18T05:58:48.116Z,71.02
2018-05-18T05:59:23.237Z,70.73
2018-05-18T05:59:58.957Z,71.02
2018-05-18T06:00:34.636Z,71.02
2018-05-18T06:01:09.871Z,71.21
2018-05-18T06:01:45.497Z,71.31
2018-05-18T06:02:21.003Z,71.78
2018-05-18T06:02:56.217Z,71.78
2018-05-18T06:03:32.548Z,71.06
2018-05-18T06:04:08.449Z,70.67
2018-05-18T06:04:43.749Z,71.06
2018-05-18T06:05:19.057Z,70.58
2018-05-18T06:05:54.558Z,70.39
2018-05-18T06:06:29.858Z,70.67
2018-05-18T06:07:05.160Z,70.39
2018-05-18T06:07:43.498Z,69.82
2018-05-18T06:08:18.825Z,70.39
2018-05-18T06:08:54.054Z,70.01
2018-05-18T06:09:29.309Z,70.10
2018-05-18T06:10:04.998Z,69.82
2018-05-18T06:10:41.431Z,70.01
2018-05-18T06:11:16.831Z,70.01
2018-05-18T06:11:52.210Z,70.67
2018-05-18T06:12:27.778Z,70.58
2018-05-18T06:13:03.058Z,70.67
2018-05-18T06:13:38.733Z,70.20
2018-05-18T06:14:14.394Z,70.58
2018-05-18T06:14:50.094Z,70.20
2018-05-18T06:15:25.252Z,70.20
2018-05-18T06:16:00.601Z,69.72
2018-05-18T06:16:36.213Z,69.05
2018-05-18T06:17:11.518Z,69.43
2018-05-18T06:17:46.838Z,68.67
2018-05-18T06:18:22.222Z,69.24
2018-05-18T06:18:57.596Z,69.27
2018-05-18T06:19:33.194Z,69.56
2018-05-18T06:20:08.287Z,68.99
2018-05-18T06:20:43.976Z,68.80
2018-05-18T06:21:19.311Z,68.80
2018-05-18T06:21:54.999Z,68.84
2018-05-18T06:22:30.633Z,68.70
2018-05-18T06:23:06.200Z,68.26
2018-05-18T06:23:41.761Z,68.16
2018-05-18T06:24:17.255Z,67.69
2018-05-18T06:24:53.092Z,67.88
2018-05-18T06:25:28.252Z,67.69
2018-05-18T06:26:03.482Z,67.78
2018-05-18T06:26:38.705Z,67.30
2018-05-18T06:27:14.289Z,67.21
2018-05-18T06:27:49.698Z,66.96
2018-05-18T06:28:25.172Z,66.96
2018-05-18T06:29:00.537Z,67.05
2018-05-18T06:29:36.066Z,66.57
2018-05-18T06:30:11.544Z,66.76
2018-05-18T06:30:48.032Z,66.80
2018-05-18T06:31:23.381Z,65.42
2018-05-18T06:31:58.763Z,65.71
2018-05-18T06:32:34.006Z,65.45
2018-05-18T06:33:09.567Z,65.71
2018-05-18T06:33:44.851Z,65.81
2018-05-18T06:34:20.243Z,66.19
2018-05-18T06:34:55.723Z,65.42
2018-05-18T06:35:31.628Z,65.33
2018-05-18T06:36:07.412Z,65.14
2018-05-18T06:36:42.652Z,65.42
2018-05-18T06:37:18.270Z,66.28
2018-05-18T06:37:53.785Z,66.57
2018-05-18T06:38:29.208Z,66.28
2018-05-18T06:39:04.649Z,65.68
2018-05-18T06:39:40.923Z,66.19
2018-05-18T06:40:17.175Z,66.06
2018-05-18T06:40:54.165Z,66.44
2018-05-18T06:41:29.293Z,66.54
2018-05-18T06:42:04.820Z,66.38
2018-05-18T06:42:40.293Z,66.76
2018-05-18T06:43:15.747Z,66.67
2018-05-18T06:43:51.155Z,66.47
2018-05-18T06:44:26.465Z,65.52
2018-05-18T06:45:01.765Z,65.42
2018-05-18T06:45:37.397Z,65.61
2018-05-18T06:46:12.584Z,65.84
2018-05-18T06:46:47.841Z,65.17
2018-05-18T06:47:24.613Z,64.22
2018-05-18T06:47:59.842Z,63.06
2018-05-18T06:48:35.232Z,63.35
2018-05-18T06:49:10.423Z,63.06
2018-05-18T06:49:46.066Z,63.64
2018-05-18T06:50:21.640Z,63.80
2018-05-18T06:50:57.388Z,64.47
2018-05-18T06:51:32.975Z,65.42
2018-05-18T06:52:08.223Z,65.55
2018-05-18T06:52:43.568Z,65.26
2018-05-18T06:53:19.051Z,66.38
2018-05-18T06:53:54.608Z,65.23
2018-05-18T06:54:30.161Z,64.75
2018-05-18T06:55:05.141Z,65.42
2018-05-18T06:55:41.642Z,65.61
2018-05-18T06:56:17.158Z,65.81
2018-05-18T06:56:52.663Z,65.52
2018-05-18T06:57:28.023Z,65.39
2018-05-18T06:58:03.360Z,65.58
2018-05-18T06:58:38.869Z,66.54
2018-05-18T06:59:14.431Z,66.25
2018-05-18T06:59:49.859Z,66.63
2018-05-18T07:00:25.171Z,67.02
2018-05-18T07:01:00.565Z,66.92
2018-05-18T07:01:35.899Z,66.63
2018-05-18T07:02:11.578Z,66.44
2018-05-18T07:02:47.047Z,66.54
2018-05-18T07:03:22.469Z,66.63
2018-05-18T07:03:57.962Z,67.11
2018-05-18T07:04:33.647Z,66.73
2018-05-18T07:05:09.178Z,66.73
2018-05-18T07:05:44.477Z,66.73
2018-05-18T07:06:19.599Z,66.54
2018-05-18T07:06:54.913Z,66.67
2018-05-18T07:07:30.481Z,66.09
2018-05-18T07:08:06.325Z,66.13
2018-05-18T07:08:42.088Z,65.39
2018-05-18T07:09:19.334Z,64.92
2018-05-18T07:09:54.806Z,64.95
2018-05-18T07:10:30.348Z,63.70
2018-05-18T07:11:05.591Z,62.87
2018-05-18T07:11:40.945Z,61.34
2018-05-18T07:12:16.629Z,60.38
2018-05-18T07:12:51.922Z,59.90
2018-05-18T07:13:27.255Z,59.61
2018-05-18T07:14:02.547Z,60.09
2018-05-18T07:14:37.993Z,59.61
2018-05-18T07:15:13.659Z,60.16
2018-05-18T07:15:48.906Z,60.25
2018-05-18T07:16:24.485Z,59.39
2018-05-18T07:16:59.946Z,60.54
2018-05-18T07:17:35.124Z,60.35
2018-05-18T07:18:10.491Z,61.21
2018-05-18T07:18:46.138Z,60.73
2018-05-18T07:19:21.791Z,61.40
2018-05-18T07:19:57.189Z,61.31
2018-05-18T07:20:32.820Z,61.60
2018-05-18T07:21:10.127Z,61.11
2018-05-18T07:21:45.385Z,60.73
2018-05-18T07:22:20.908Z,60.83
2018-05-18T07:22:56.343Z,60.32
2018-05-18T07:23:31.759Z,61.18
2018-05-18T07:24:07.175Z,60.93
2018-05-18T07:24:42.655Z,61.18
2018-05-18T07:25:17.904Z,61.18
2018-05-18T07:25:53.223Z,61.37
2018-05-18T07:26:28.708Z,61.66
2018-05-18T07:27:04.561Z,61.37
2018-05-18T07:27:39.948Z,62.04
2018-05-18T07:28:15.411Z,62.23
2018-05-18T07:28:51.192Z,61.08
2018-05-18T07:29:26.476Z,61.94
2018-05-18T07:30:01.941Z,61.94
2018-05-18T07:30:37.177Z,61.76
2018-05-18T07:31:12.430Z,62.65
2018-05-18T07:31:47.947Z,62.26
2018-05-18T07:32:23.347Z,61.72
2018-05-18T07:32:58.891Z,61.53
2018-05-18T07:33:34.171Z,60.70
2018-05-18T07:34:09.876Z,59.83
2018-05-18T07:34:47.006Z,59.19
2018-05-18T07:35:22.686Z,59.09
2018-05-18T07:35:58.040Z,58.33
2018-05-18T07:36:33.330Z,57.85